createdAt,value
2022-10-22T00:00:39.544Z,39.05
2022-10-22T00:03:06.917Z,36.90
2022-10-22T00:05:34.602Z,31.02
2022-10-22T00:08:01.639Z,35.55
2022-10-22T00:10:29.513Z,31.67
2022-10-22T00:12:56.731Z,35.40
2022-10-22T00:15:24.094Z,32.15
2022-10-22T00:17:51.064Z,48.60
2022-10-22T00:20:18.935Z,32.25
2022-10-22T00:22:46.390Z,40.15
2022-10-22T00:25:13.864Z,30.25
2022-10-22T00:27:41.703Z,35.53
2022-10-22T00:30:12.830Z,29.98
2022-10-22T00:32:40.435Z,29.88
2022-10-22T00:35:08.038Z,33.35
2022-10-22T00:37:35.186Z,32.85
2022-10-22T00:40:02.495Z,32.03
2022-10-22T00:42:30.609Z,34.20
2022-10-22T00:45:12.690Z,30.77
2022-10-22T00:47:44.508Z,38.00
2022-10-22T00:50:16.226Z,33.63
2022-10-22T00:52:44.310Z,31.65
2022-10-22T00:55:13.272Z,57.25
2022-10-22T00:57:40.819Z,32.90
2022-10-22T01:00:09.060Z,29.00
2022-10-22T01:02:37.981Z,39.53
2022-10-22T01:05:05.640Z,33.03
2022-10-22T01:07:38.639Z,36.30
2022-10-22T01:10:12.583Z,33.17
2022-10-22T01:13:05.993Z,32.75
2022-10-22T01:15:58.805Z,34.17
2022-10-22T01:18:38.416Z,32.88
2022-10-22T01:21:41.637Z,40.13
2022-10-22T01:24:09.004Z,33.60
2022-10-22T01:26:57.979Z,40.35
2022-10-22T01:29:27.968Z,44.80
2022-10-22T01:32:15.924Z,38.88
2022-10-22T01:34:47.464Z,42.70
2022-10-22T01:37:15.807Z,39.40
2022-10-22T01:39:45.794Z,41.17
2022-10-22T01:42:14.495Z,37.50
2022-10-22T01:44:41.892Z,44.30
2022-10-22T01:47:21.734Z,60.40
2022-10-22T01:49:57.712Z,44.33
2022-10-22T01:52:32.158Z,54.28
2022-10-22T01:55:31.581Z,36.60
2022-10-22T01:58:16.658Z,34.83
2022-10-22T02:00:51.289Z,34.33
2022-10-22T02:03:26.022Z,38.05
2022-10-22T02:05:58.113Z,86.38
2022-10-22T02:08:31.345Z,80.95
2022-10-22T02:11:00.831Z,32.15
2022-10-22T02:13:35.390Z,42.53
2022-10-22T02:16:04.954Z,35.90
2022-10-22T02:18:37.617Z,31.38
2022-10-22T02:23:36.419Z,34.60
2022-10-22T02:26:39.336Z,32.35
2022-10-22T02:29:22.237Z,36.63
2022-10-22T02:31:52.097Z,26.75
2022-10-22T02:34:24.065Z,25.98
2022-10-22T02:36:52.353Z,22.95
2022-10-22T02:39:21.234Z,28.48
2022-10-22T02:41:49.359Z,30.13
2022-10-22T02:44:16.418Z,29.75
2022-10-22T02:46:43.969Z,25.42
2022-10-22T02:49:11.355Z,27.17
2022-10-22T02:51:38.586Z,30.10
2022-10-22T02:54:06.098Z,29.02
2022-10-22T02:56:33.885Z,31.58
2022-10-22T02:59:01.211Z,32.40
2022-10-22T03:01:28.318Z,29.65
2022-10-22T03:03:55.421Z,28.15
2022-10-22T03:06:22.809Z,28.60
2022-10-22T03:08:50.556Z,25.05
2022-10-22T03:11:18.075Z,32.75
2022-10-22T03:13:45.477Z,29.52
2022-10-22T03:16:12.794Z,36.97
2022-10-22T03:18:40.224Z,29.48
2022-10-22T03:21:31.349Z,29.70
2022-10-22T03:24:00.194Z,29.38
2022-10-22T03:26:27.406Z,59.60
2022-10-22T03:28:55.235Z,93.93
2022-10-22T03:31:22.650Z,35.75
2022-10-22T03:33:50.192Z,179.15
2022-10-22T03:36:17.890Z,148.30
2022-10-22T03:38:45.576Z,124.93
2022-10-22T03:41:12.691Z,161.02
2022-10-22T03:43:41.313Z,154.93
2022-10-22T03:46:08.427Z,102.65
2022-10-22T03:48:35.659Z,90.03
2022-10-22T03:51:02.959Z,36.17
2022-10-22T03:53:30.152Z,136.65
2022-10-22T03:55:57.519Z,86.68
2022-10-22T03:58:24.714Z,40.65
2022-10-22T04:00:51.924Z,61.08
2022-10-22T04:03:19.256Z,84.88
2022-10-22T04:05:46.502Z,114.28
2022-10-22T04:08:13.853Z,71.30
2022-10-22T04:10:41.288Z,126.95
2022-10-22T04:13:08.522Z,135.32
2022-10-22T04:15:36.307Z,156.85
2022-10-22T04:18:03.713Z,109.15
2022-10-22T04:20:31.163Z,90.53
2022-10-22T04:22:58.271Z,81.03
2022-10-22T04:25:25.970Z,83.30
2022-10-22T04:27:53.180Z,80.35
2022-10-22T04:30:20.467Z,86.43
2022-10-22T04:32:48.000Z,82.75
2022-10-22T04:35:15.934Z,37.88
2022-10-22T04:37:43.385Z,59.53
2022-10-22T04:40:11.647Z,40.92
2022-10-22T04:42:38.950Z,37.83
2022-10-22T04:45:06.955Z,66.03
2022-10-22T04:47:34.168Z,39.70
2022-10-22T04:50:01.312Z,29.35
2022-10-22T04:52:28.677Z,79.70
2022-10-22T04:54:56.102Z,56.03
2022-10-22T04:57:23.680Z,126.55
2022-10-22T04:59:51.163Z,83.28
2022-10-22T05:02:18.552Z,80.57
2022-10-22T05:04:45.968Z,123.15
2022-10-22T05:07:13.345Z,73.13
2022-10-22T05:09:40.853Z,25.80
2022-10-22T05:12:08.252Z,26.77
2022-10-22T05:14:35.820Z,55.85
2022-10-22T05:17:03.321Z,21.25
2022-10-22T05:19:31.858Z,54.90
2022-10-22T05:22:01.949Z,56.83
2022-10-22T05:24:31.185Z,41.55
2022-10-22T05:26:59.696Z,40.80
2022-10-22T05:29:27.881Z,19.67
2022-10-22T05:31:55.347Z,19.45
2022-10-22T05:34:23.025Z,36.40
2022-10-22T05:36:50.154Z,23.45
2022-10-22T05:39:17.757Z,14.50
2022-10-22T05:41:45.140Z,11.63
2022-10-22T05:44:13.246Z,15.60
2022-10-22T05:46:40.807Z,13.93
2022-10-22T05:49:08.433Z,23.60
2022-10-22T05:51:37.666Z,43.65
2022-10-22T05:54:07.923Z,34.45
2022-10-22T05:56:37.400Z,60.58
2022-10-22T05:59:05.398Z,41.97
2022-10-22T06:01:35.807Z,22.80
2022-10-22T06:04:06.720Z,74.13
2022-10-22T06:06:41.128Z,65.10
2022-10-22T06:12:09.191Z,58.38
2022-10-22T06:14:36.831Z,23.20
2022-10-22T06:17:04.018Z,49.95
2022-10-22T06:19:31.629Z,57.05
2022-10-22T06:21:58.796Z,48.58
2022-10-22T06:24:26.358Z,27.55
2022-10-22T06:26:54.254Z,41.90
2022-10-22T06:29:21.745Z,32.67
2022-10-22T06:31:49.887Z,40.00
2022-10-22T06:34:19.229Z,47.10
2022-10-22T06:36:47.108Z,50.28
2022-10-22T06:39:17.158Z,24.73
2022-10-22T06:41:45.063Z,47.08
2022-10-22T06:44:20.537Z,45.45
2022-10-22T06:46:52.439Z,56.22
2022-10-22T06:49:20.303Z,74.72
2022-10-22T06:51:51.663Z,65.88
2022-10-22T06:54:19.113Z,46.88
2022-10-22T06:56:46.561Z,41.72
2022-10-22T06:59:14.293Z,45.88
2022-10-22T07:01:42.709Z,37.70
2022-10-22T07:04:11.801Z,50.55
2022-10-22T07:06:39.213Z,76.07
2022-10-22T07:09:09.238Z,88.22
2022-10-22T07:11:42.667Z,36.20
2022-10-22T07:14:10.546Z,68.45
2022-10-22T07:16:38.199Z,52.25
2022-10-22T07:19:06.028Z,78.88
2022-10-22T07:21:33.485Z,69.97
2022-10-22T07:24:00.631Z,47.30
2022-10-22T07:26:31.248Z,69.53
2022-10-22T07:28:59.821Z,65.38
2022-10-22T07:31:27.263Z,60.20
2022-10-22T07:33:54.759Z,59.53
2022-10-22T07:36:22.781Z,50.92
2022-10-22T07:38:55.638Z,41.03
2022-10-22T07:41:23.875Z,44.17
2022-10-22T07:43:51.302Z,42.65
2022-10-22T07:46:19.055Z,58.00
2022-10-22T07:48:46.621Z,48.63
2022-10-22T07:51:14.300Z,41.95
2022-10-22T07:53:42.082Z,33.63
2022-10-22T07:56:09.811Z,28.13
2022-10-22T07:58:37.016Z,53.53
2022-10-22T08:01:07.344Z,47.88
2022-10-22T08:03:35.081Z,52.72
2022-10-22T08:06:03.252Z,33.88
2022-10-22T08:08:31.280Z,33.83
2022-10-22T08:11:00.880Z,38.65
2022-10-22T08:13:30.875Z,29.77
2022-10-22T08:16:01.623Z,43.60
2022-10-22T08:18:29.605Z,32.90
2022-10-22T08:20:57.094Z,37.83
2022-10-22T08:23:27.564Z,28.98
2022-10-22T08:25:57.105Z,32.95
2022-10-22T08:28:24.407Z,34.03
2022-10-22T08:30:51.907Z,44.20
2022-10-22T08:33:19.319Z,40.00
2022-10-22T08:35:53.076Z,34.00
2022-10-22T08:38:21.024Z,36.38
2022-10-22T08:40:54.526Z,43.58
2022-10-22T08:43:52.651Z,36.15
2022-10-22T08:46:25.973Z,37.40
2022-10-22T08:48:59.786Z,36.33
2022-10-22T08:51:39.744Z,34.20
2022-10-22T08:54:23.385Z,33.65
2022-10-22T08:57:10.093Z,36.60
2022-10-22T09:00:02.820Z,35.35
2022-10-22T09:03:18.466Z,29.20
2022-10-22T09:06:18.606Z,32.17
2022-10-22T09:08:47.997Z,29.45
2022-10-22T09:11:26.234Z,34.40
2022-10-22T09:13:57.003Z,32.75
2022-10-22T09:16:43.602Z,27.88
2022-10-22T09:19:48.538Z,34.78
2022-10-22T09:22:31.286Z,18.52
2022-10-22T09:25:21.831Z,25.48
2022-10-22T09:27:50.565Z,26.67
2022-10-22T09:30:20.231Z,21.90
2022-10-22T09:32:52.521Z,21.85
2022-10-22T09:35:23.592Z,19.92
2022-10-22T09:37:55.109Z,20.90
2022-10-22T09:40:23.297Z,17.70
2022-10-22T09:42:50.705Z,21.60
2022-10-22T09:45:24.784Z,20.85
2022-10-22T09:48:12.722Z,18.65
2022-10-22T09:50:45.082Z,19.77
2022-10-22T09:53:23.764Z,20.67
2022-10-22T09:58:27.815Z,14.15
2022-10-22T10:01:01.859Z,13.75
2022-10-22T10:03:33.299Z,17.75
2022-10-22T10:06:05.982Z,16.67
2022-10-22T10:08:34.545Z,17.05
2022-10-22T10:11:16.930Z,15.23
2022-10-22T10:13:47.988Z,14.38
2022-10-22T10:16:33.569Z,18.85
2022-10-22T10:19:06.898Z,14.38
2022-10-22T10:22:04.342Z,16.10
2022-10-22T10:25:03.475Z,17.08
2022-10-22T10:27:50.460Z,13.23
2022-10-22T10:30:20.813Z,11.02
2022-10-22T10:33:02.507Z,17.63
2022-10-22T10:35:35.574Z,12.32
2022-10-22T10:38:29.665Z,11.05
2022-10-22T10:41:08.932Z,11.32
2022-10-22T10:44:06.178Z,11.15
2022-10-22T10:46:51.899Z,13.57
2022-10-22T10:52:25.480Z,7.32
2022-10-22T10:55:01.847Z,9.90
2022-10-22T10:57:57.371Z,8.88
2022-10-22T11:00:24.968Z,9.52
2022-10-22T11:03:31.746Z,7.97
2022-10-22T11:06:03.726Z,10.40
2022-10-22T11:08:37.374Z,8.77
2022-10-22T11:11:08.769Z,12.85
2022-10-22T11:13:52.687Z,10.43
2022-10-22T11:16:51.291Z,13.55
2022-10-22T11:19:51.029Z,9.70
2022-10-22T11:22:50.539Z,6.18
2022-10-22T11:25:45.545Z,6.68
2022-10-22T11:28:25.298Z,10.37
2022-10-22T11:31:17.359Z,10.23
2022-10-22T11:34:15.306Z,13.13
2022-10-22T11:39:51.541Z,7.57
2022-10-22T11:42:30.394Z,7.28
2022-10-22T11:45:07.070Z,4.57
2022-10-22T11:47:51.931Z,9.70
2022-10-22T11:50:25.469Z,8.23
2022-10-22T11:53:04.789Z,8.68
2022-10-22T11:55:51.884Z,5.45
2022-10-22T11:58:47.660Z,6.80
2022-10-22T12:01:22.975Z,15.65
2022-10-22T12:04:18.796Z,10.93
2022-10-22T12:06:55.718Z,11.82
2022-10-22T12:09:26.664Z,4.40
2022-10-22T12:11:55.953Z,9.40
2022-10-22T12:14:35.882Z,7.25
2022-10-22T12:17:10.453Z,9.25
2022-10-22T12:19:50.567Z,6.70
2022-10-22T12:22:22.489Z,10.00
2022-10-22T12:24:55.466Z,7.25
2022-10-22T12:27:36.710Z,5.82
2022-10-22T12:30:18.962Z,5.72
2022-10-22T12:32:46.409Z,7.50
2022-10-22T12:35:22.029Z,9.75
2022-10-22T12:37:54.867Z,11.40
2022-10-22T12:40:27.593Z,9.40
2022-10-22T12:43:02.552Z,14.15
2022-10-22T12:45:32.252Z,14.18
2022-10-22T12:48:25.474Z,9.10
2022-10-22T12:51:00.480Z,10.60
2022-10-22T12:53:38.191Z,8.15
2022-10-22T12:56:12.593Z,13.00
2022-10-22T12:58:43.761Z,6.23
2022-10-22T13:01:17.467Z,5.43
2022-10-22T13:03:50.399Z,5.75
2022-10-22T13:06:20.596Z,3.90
2022-10-22T13:09:02.302Z,13.00
2022-10-22T13:11:50.006Z,8.23
2022-10-22T13:14:34.508Z,6.85
2022-10-22T13:17:15.482Z,3.65
2022-10-22T13:20:02.471Z,13.00
2022-10-22T13:22:41.279Z,7.47
2022-10-22T13:25:19.362Z,6.93
2022-10-22T13:27:48.040Z,5.93
2022-10-22T13:30:36.902Z,3.75
2022-10-22T13:33:07.203Z,4.07
2022-10-22T13:35:38.552Z,3.63
2022-10-22T13:38:22.528Z,8.13
2022-10-22T13:40:50.578Z,4.60
2022-10-22T13:43:18.659Z,6.05
2022-10-22T13:45:52.432Z,8.88
2022-10-22T13:48:22.171Z,33.95
2022-10-22T13:50:50.699Z,13.13
2022-10-22T13:53:27.325Z,8.35
2022-10-22T13:55:55.756Z,12.75
2022-10-22T13:58:25.126Z,8.30
2022-10-22T14:00:58.278Z,11.50
2022-10-22T14:03:29.892Z,6.00
2022-10-22T14:05:57.245Z,5.50
2022-10-22T14:08:26.221Z,7.03
2022-10-22T14:10:53.820Z,3.33
2022-10-22T14:13:21.905Z,3.63
2022-10-22T14:15:50.852Z,21.20
2022-10-22T14:18:27.656Z,7.22
2022-10-22T14:20:58.098Z,5.07
2022-10-22T14:23:28.112Z,4.72
2022-10-22T14:25:56.062Z,4.78
2022-10-22T14:28:23.302Z,5.65
2022-10-22T14:30:54.528Z,8.18
2022-10-22T14:33:31.977Z,4.50
2022-10-22T14:36:02.116Z,6.25
2022-10-22T14:38:30.346Z,4.07
2022-10-22T14:40:59.865Z,5.28
2022-10-22T14:43:31.938Z,6.70
2022-10-22T14:45:59.487Z,13.50
2022-10-22T14:48:26.907Z,4.93
2022-10-22T14:50:55.323Z,5.53
2022-10-22T14:53:23.010Z,10.32
2022-10-22T14:55:51.880Z,5.97
2022-10-22T14:58:18.914Z,11.27
2022-10-22T15:00:46.168Z,3.88
2022-10-22T15:03:14.814Z,4.28
2022-10-22T15:05:46.740Z,5.75
2022-10-22T15:08:15.169Z,10.07
2022-10-22T15:10:42.648Z,4.68
2022-10-22T15:13:09.971Z,6.60
2022-10-22T15:15:41.164Z,8.65
2022-10-22T15:18:08.368Z,5.43
2022-10-22T15:20:35.842Z,9.07
2022-10-22T15:23:03.509Z,5.13
2022-10-22T15:25:30.933Z,10.38
2022-10-22T15:28:01.808Z,6.50
2022-10-22T15:30:31.967Z,10.65
2022-10-22T15:32:59.118Z,10.68
2022-10-22T15:35:28.944Z,9.38
2022-10-22T15:37:56.313Z,10.05
2022-10-22T15:40:24.929Z,6.03
2022-10-22T15:42:52.196Z,9.27
2022-10-22T15:45:21.582Z,5.32
2022-10-22T15:47:49.217Z,4.85
2022-10-22T15:50:17.217Z,3.88
2022-10-22T15:52:44.634Z,8.20
2022-10-22T15:57:40.697Z,7.22
2022-10-22T16:00:09.130Z,3.50
2022-10-22T16:02:37.707Z,6.68
2022-10-22T16:05:05.238Z,11.73
2022-10-22T16:07:32.626Z,8.77
2022-10-22T16:10:00.985Z,7.72
2022-10-22T16:12:28.430Z,6.90
2022-10-22T16:14:55.808Z,9.93
2022-10-22T16:17:23.709Z,6.00
2022-10-22T16:19:51.061Z,7.63
2022-10-22T16:22:18.340Z,4.45
2022-10-22T16:24:45.596Z,8.57
2022-10-22T16:27:12.708Z,6.93
2022-10-22T16:29:40.999Z,10.20
2022-10-22T16:32:08.608Z,6.35
2022-10-22T16:34:36.023Z,10.05
2022-10-22T16:37:04.808Z,11.70
2022-10-22T16:39:32.104Z,14.25
2022-10-22T16:41:59.356Z,7.00
2022-10-22T16:44:27.144Z,18.85
2022-10-22T16:46:54.389Z,9.00
2022-10-22T16:49:21.907Z,9.60
2022-10-22T16:51:49.107Z,10.50
2022-10-22T16:54:16.800Z,7.95
2022-10-22T16:56:47.269Z,9.43
2022-10-22T16:59:14.661Z,7.40
2022-10-22T17:01:42.270Z,5.28
2022-10-22T17:04:10.382Z,7.65
2022-10-22T17:06:41.175Z,7.50
2022-10-22T17:09:08.502Z,15.38
2022-10-22T17:11:37.280Z,7.00
2022-10-22T17:14:06.762Z,6.65
2022-10-22T17:16:34.128Z,6.20
2022-10-22T17:19:04.325Z,3.08
2022-10-22T17:21:31.516Z,10.25
2022-10-22T17:23:58.938Z,8.05
2022-10-22T17:26:27.117Z,7.97
2022-10-22T17:28:55.221Z,64.25
2022-10-22T17:31:25.321Z,208.70
2022-10-22T17:33:54.626Z,505.92
2022-10-22T17:36:23.683Z,644.40
2022-10-22T17:39:00.698Z,150.68
2022-10-22T17:41:31.222Z,38.42
2022-10-22T17:44:00.709Z,23.02
2022-10-22T17:46:30.139Z,18.52
2022-10-22T17:52:11.778Z,10.02
2022-10-22T17:54:39.551Z,6.53
2022-10-22T17:57:07.076Z,89.75
2022-10-22T17:59:34.657Z,29.45
2022-10-22T18:02:03.049Z,15.35
2022-10-22T18:04:32.273Z,10.30
2022-10-22T18:07:05.105Z,6.63
2022-10-22T18:09:32.286Z,7.97
2022-10-22T18:11:59.730Z,19.63
2022-10-22T18:14:27.596Z,12.75
2022-10-22T18:16:55.427Z,6.80
2022-10-22T18:19:24.961Z,6.30
2022-10-22T18:21:52.332Z,9.10
2022-10-22T18:24:19.851Z,5.43
2022-10-22T18:26:47.187Z,8.00
2022-10-22T18:29:18.324Z,2.90
2022-10-22T18:31:46.428Z,11.00
2022-10-22T18:34:13.970Z,5.05
2022-10-22T18:36:42.779Z,6.40
2022-10-22T18:39:14.780Z,6.00
2022-10-22T18:41:42.932Z,10.48
2022-10-22T18:44:14.249Z,5.75
2022-10-22T18:46:41.703Z,9.68
2022-10-22T18:49:08.900Z,5.05
2022-10-22T18:51:36.788Z,11.95
2022-10-22T18:54:05.651Z,10.25
2022-10-22T18:56:45.560Z,8.18
2022-10-22T18:59:22.059Z,6.93
2022-10-22T19:01:52.395Z,13.55
2022-10-22T19:04:19.977Z,9.10
2022-10-22T19:06:47.403Z,7.22
2022-10-22T19:09:16.667Z,12.30
2022-10-22T19:11:46.961Z,6.18
2022-10-22T19:14:15.181Z,7.82
2022-10-22T19:16:42.642Z,598.38
2022-10-22T19:19:10.138Z,665.55
2022-10-22T19:21:38.624Z,317.48
2022-10-22T19:24:07.473Z,58.08
2022-10-22T19:26:35.297Z,41.55
2022-10-22T19:29:03.315Z,23.90
2022-10-22T19:31:31.551Z,27.50
2022-10-22T19:34:02.782Z,34.15
2022-10-22T19:36:32.927Z,27.20
2022-10-22T19:39:00.633Z,17.48
2022-10-22T19:41:29.365Z,13.15
2022-10-22T19:43:58.730Z,15.40
2022-10-22T19:46:27.407Z,12.73
2022-10-22T19:48:57.445Z,23.50
2022-10-22T19:51:28.049Z,11.20
2022-10-22T19:54:01.528Z,11.23
2022-10-22T19:56:29.879Z,13.60
2022-10-22T19:58:58.260Z,13.25
2022-10-22T20:01:26.723Z,11.50
2022-10-22T20:03:54.493Z,18.05
2022-10-22T20:06:23.782Z,7.18
2022-10-22T20:08:53.875Z,16.27
2022-10-22T20:11:26.850Z,8.57
2022-10-22T20:13:54.755Z,10.85
2022-10-22T20:16:23.705Z,9.23
2022-10-22T20:18:52.516Z,9.55
2022-10-22T20:21:21.073Z,20.23
2022-10-22T20:23:51.757Z,7.72
2022-10-22T20:26:19.174Z,11.43
2022-10-22T20:28:53.866Z,8.98
2022-10-22T20:31:24.242Z,9.68
2022-10-22T20:33:51.671Z,11.52
2022-10-22T20:36:23.467Z,8.32
2022-10-22T20:38:51.926Z,11.77
2022-10-22T20:41:23.506Z,7.75
2022-10-22T20:43:52.059Z,7.60
2022-10-22T20:46:30.032Z,9.75
2022-10-22T20:49:09.611Z,10.65
2022-10-22T20:51:37.782Z,11.10
2022-10-22T20:54:07.824Z,14.25
2022-10-22T20:56:40.003Z,12.27
2022-10-22T20:59:08.770Z,7.88
2022-10-22T21:01:45.927Z,13.45
2022-10-22T21:04:14.222Z,12.98
2022-10-22T21:06:43.216Z,17.48
2022-10-22T21:09:15.072Z,6.57
2022-10-22T21:11:43.362Z,7.88
2022-10-22T21:14:11.988Z,16.77
2022-10-22T21:16:44.900Z,9.35
2022-10-22T21:19:12.948Z,14.55
2022-10-22T21:21:40.437Z,13.85
2022-10-22T21:24:08.004Z,11.32
2022-10-22T21:26:40.016Z,18.23
2022-10-22T21:29:08.319Z,8.85
2022-10-22T21:31:35.658Z,7.95
2022-10-22T21:34:03.089Z,12.55
2022-10-22T21:36:30.488Z,14.18
2022-10-22T21:38:57.920Z,20.45
2022-10-22T21:41:25.192Z,15.13
2022-10-22T21:43:52.701Z,10.90
2022-10-22T21:46:26.144Z,17.50
2022-10-22T21:49:04.006Z,8.02
2022-10-22T21:51:38.210Z,10.88
2022-10-22T21:54:06.189Z,14.18
2022-10-22T21:56:35.851Z,12.20
2022-10-22T21:59:04.440Z,13.80
2022-10-22T22:01:34.342Z,17.13
2022-10-22T22:04:02.238Z,12.82
2022-10-22T22:06:33.459Z,20.95
2022-10-22T22:09:02.553Z,12.13
2022-10-22T22:11:30.694Z,14.02
2022-10-22T22:13:58.763Z,9.77
2022-10-22T22:16:32.371Z,10.25
2022-10-22T22:19:01.643Z,21.35
2022-10-22T22:21:29.013Z,9.50
2022-10-22T22:23:57.385Z,13.18
2022-10-22T22:26:29.742Z,19.95
2022-10-22T22:28:58.942Z,15.82
2022-10-22T22:31:28.969Z,14.82
2022-10-22T22:34:08.248Z,12.40
2022-10-22T22:36:43.748Z,13.80
2022-10-22T22:39:19.949Z,13.50
2022-10-22T22:41:47.592Z,15.35
2022-10-22T22:44:15.364Z,16.42
2022-10-22T22:46:43.008Z,17.23
2022-10-22T22:49:10.598Z,15.45
2022-10-22T22:51:38.335Z,13.63
2022-10-22T22:54:05.582Z,17.48
2022-10-22T22:56:34.982Z,21.52
2022-10-22T22:59:03.595Z,12.68
2022-10-22T23:01:33.311Z,10.85
2022-10-22T23:04:11.699Z,11.68
2022-10-22T23:06:39.204Z,18.23
2022-10-22T23:09:08.737Z,25.25
2022-10-22T23:11:36.458Z,16.55
2022-10-22T23:14:06.031Z,13.25
2022-10-22T23:16:37.351Z,16.73
2022-10-22T23:19:05.447Z,11.18
2022-10-22T23:21:35.495Z,20.90
2022-10-22T23:24:08.411Z,15.00
2022-10-22T23:26:41.999Z,30.05
2022-10-22T23:29:15.076Z,15.02
2022-10-22T23:31:43.630Z,19.13
2022-10-22T23:34:12.825Z,14.27
2022-10-22T23:36:40.507Z,15.18
2022-10-22T23:39:10.206Z,12.77
2022-10-22T23:41:37.733Z,15.27
2022-10-22T23:44:05.336Z,12.50
2022-10-22T23:46:34.051Z,13.48
2022-10-22T23:49:02.002Z,17.75
2022-10-22T23:51:29.590Z,15.93
2022-10-22T23:54:06.399Z,23.55
2022-10-22T23:56:37.009Z,11.52
2022-10-22T23:59:04.802Z,9.02
